Terminal Aerodrome Forecast
Issued by NWS Twin Cities, MN

Home | Current Version | Previous Version | Graphics & Text | Print | Product List | Glossary On
Versions: 1 2 3 4 5 6 7 8 9 10 11 12 13 14 15 16
746
FTUS43 KMPX 271120
TAFSTC
TAF
KSTC 271120Z 2712/2812 32009KT P6SM SCT009 OVC015
      TEMPO 2712/2715 5SM -SN BR BKN009 OVC015
     FM271600 33012G18KT P6SM BKN020 OVC040
     FM272100 31012KT P6SM BKN035
     FM280500 29005KT P6SM SCT030=

USA.gov is the U.S. government's official web portal to all federal, state and local government web resources and services.